Time;durP1;ratioP1;P1;durP2;ratioP2;P2;SDS_P1;SDS_P2;PMS_P1;PMS_P2;Temp;Humidity;BMP_temperature;BMP_pressure;BME280_temperature;BME280_humidity;BME280_pressure;Samples;Min_cycle;Max_cycle;Signal;HPM_P1;HPM_P2
2021/12/24 00:00:00;;;;;;;22.13;15.98;;;6.10;99.90;;;;;;5019588;28;20056;-75
2021/12/24 00:02:26;;;;;;;19.83;15.02;;;6.10;99.90;;;;;;5020255;28;20044;-75
2021/12/24 00:04:51;;;;;;;20.48;13.25;;;6.10;99.90;;;;;;5020491;28;20103;-76
2021/12/24 00:07:17;;;;;;;23.27;14.32;;;6.10;99.90;;;;;;5019377;28;20045;-76
2021/12/24 00:09:43;;;;;;;25.40;15.85;;;6.20;99.90;;;;;;5038479;28;20049;-75
2021/12/24 00:12:15;;;;;;;20.40;16.10;;;6.10;99.90;;;;;;5020226;28;20808;-76
2021/12/24 00:14:45;;;;;;;23.80;16.10;;;6.80;99.90;;;;;;5037562;28;20067;-76
2021/12/24 00:17:14;;;;;;;21.10;15.27;;;6.20;99.90;;;;;;5038120;28;20061;-76
2021/12/24 00:19:49;;;;;;;20.77;15.55;;;6.20;99.90;;;;;;5037831;28;20048;-76
2021/12/24 00:35:40;;;;;;;21.90;13.90;;;6.30;99.90;;;;;;5019634;28;20139;-76
2021/12/24 00:38:10;;;;;;;22.27;14.88;;;6.40;99.90;;;;;;5020235;28;20052;-76
2021/12/24 00:40:41;;;;;;;21.20;14.57;;;6.40;99.90;;;;;;5020456;28;20096;-76
2021/12/24 00:43:07;;;;;;;17.58;13.20;;;6.40;99.90;;;;;;5019516;28;20154;-77
2021/12/24 00:45:40;;;;;;;21.45;14.02;;;6.50;99.90;;;;;;5020428;28;20135;-77
2021/12/24 00:48:08;;;;;;;19.95;14.80;;;6.50;99.90;;;;;;5038408;28;20060;-76
2021/12/24 00:56:03;;;;;;;17.00;11.75;;;6.50;99.90;;;;;;5042704;28;19968;-81
2021/12/24 00:58:29;;;;;;;20.55;13.90;;;6.60;99.90;;;;;;5042809;28;20052;-79
2021/12/24 01:00:55;;;;;;;16.98;12.77;;;6.50;99.90;;;;;;5022258;28;20049;-79
2021/12/24 01:03:20;;;;;;;14.77;12.15;;;6.60;99.90;;;;;;5022446;28;20077;-79
2021/12/24 01:05:46;;;;;;;16.65;10.98;;;6.60;99.90;;;;;;5023632;28;20049;-79
2021/12/24 01:08:13;;;;;;;18.10;12.07;;;6.70;99.90;;;;;;5024018;28;20114;-78
2021/12/24 01:10:46;;;;;;;17.17;11.13;;;6.70;99.90;;;;;;5042213;28;20148;-81
2021/12/24 01:13:12;;;;;;;14.73;10.65;;;6.70;99.90;;;;;;5024880;28;20056;-82
2021/12/24 01:15:49;;;;;;;13.00;11.20;;;6.80;99.90;;;;;;5043062;28;20087;-80
2021/12/24 01:20:58;;;;;;;15.50;10.48;;;6.80;99.90;;;;;;5024267;28;20064;-83
2021/12/24 01:23:36;;;;;;;12.70;8.95;;;6.80;99.90;;;;;;5042008;28;20045;-80
2021/12/24 01:26:06;;;;;;;13.20;9.20;;;6.90;99.90;;;;;;5041143;28;20099;-80
2021/12/24 01:29:17;;;;;;;11.20;9.20;;;6.90;99.90;;;;;;5023724;28;20045;-83
2021/12/24 01:40:19;;;;;;;9.35;7.75;;;7.00;99.90;;;;;;5037015;28;20064;-83
2021/12/24 01:42:47;;;;;;;12.57;9.32;;;7.00;99.90;;;;;;5023066;28;20060;-82
2021/12/24 01:45:28;;;;;;;8.68;6.72;;;7.00;99.90;;;;;;5039840;28;20053;-82
2021/12/24 01:47:59;;;;;;;9.98;7.72;;;7.00;99.90;;;;;;5035866;28;20076;-81
2021/12/24 01:50:28;;;;;;;12.60;8.63;;;7.10;99.90;;;;;;5024133;28;20045;-81
2021/12/24 01:52:55;;;;;;;8.07;6.75;;;7.10;99.90;;;;;;5022895;28;20132;-81
2021/12/24 01:55:21;;;;;;;10.60;7.25;;;7.10;99.90;;;;;;5041414;28;20064;-81
2021/12/24 01:57:48;;;;;;;8.68;7.25;;;7.10;99.90;;;;;;5037159;28;20056;-81
2021/12/24 02:00:23;;;;;;;8.73;5.93;;;7.10;99.90;;;;;;5039719;28;20040;-82
2021/12/24 02:02:49;;;;;;;9.98;6.40;;;7.10;99.90;;;;;;5021879;28;20037;-83
2021/12/24 02:05:15;;;;;;;9.60;6.25;;;7.20;99.90;;;;;;5040601;28;20300;-83
2021/12/24 02:07:41;;;;;;;8.57;6.07;;;7.20;99.90;;;;;;5042155;28;20048;-82
2021/12/24 02:10:09;;;;;;;7.70;6.75;;;7.20;99.90;;;;;;5023970;28;20055;-82
2021/12/24 02:12:36;;;;;;;7.50;5.65;;;7.30;99.90;;;;;;5040786;28;20736;-83
2021/12/24 02:15:11;;;;;;;6.50;5.90;;;7.30;99.90;;;;;;5022902;28;20487;-83
2021/12/24 02:28:41;;;;;;;6.55;4.93;;;7.40;99.90;;;;;;5041195;28;20684;-82
2021/12/24 02:31:13;;;;;;;7.47;5.45;;;7.40;99.90;;;;;;5040570;28;20488;-83
2021/12/24 02:33:39;;;;;;;6.53;4.47;;;7.50;99.90;;;;;;5023392;28;20049;-84
2021/12/24 02:36:06;;;;;;;5.85;4.40;;;7.50;99.90;;;;;;5023118;28;20053;-82
2021/12/24 02:38:32;;;;;;;6.93;4.97;;;7.50;99.90;;;;;;5022555;28;20963;-83
2021/12/24 02:40:58;;;;;;;7.13;5.93;;;7.60;99.90;;;;;;5020733;28;20059;-83
2021/12/24 02:43:25;;;;;;;4.50;4.10;;;7.60;99.90;;;;;;5022719;28;20052;-81
2021/12/24 02:45:55;;;;;;;4.70;3.83;;;7.60;99.90;;;;;;5040434;28;20051;-83
2021/12/24 02:48:55;;;;;;;4.63;4.13;;;7.60;99.90;;;;;;5030766;28;20055;-83
2021/12/24 02:53:57;;;;;;;4.45;3.40;;;7.70;99.90;;;;;;5040950;28;20130;-82
2021/12/24 02:56:34;;;;;;;4.20;3.78;;;7.70;99.90;;;;;;5022615;28;20045;-83
2021/12/24 02:59:03;;;;;;;7.85;3.33;;;7.70;99.90;;;;;;5032047;28;20507;-83
2021/12/24 03:01:33;;;;;;;6.47;3.70;;;7.70;99.90;;;;;;5021796;28;20543;-80
2021/12/24 03:03:59;;;;;;;4.05;3.67;;;7.70;99.90;;;;;;5022346;28;20128;-80
2021/12/24 03:06:28;;;;;;;3.88;3.47;;;7.70;99.90;;;;;;5022960;28;20048;-80
2021/12/24 03:08:54;;;;;;;5.00;3.88;;;7.80;99.90;;;;;;5020991;28;20080;-80
2021/12/24 03:11:20;;;;;;;4.70;3.13;;;7.80;99.90;;;;;;5022651;28;20712;-82
2021/12/24 03:13:47;;;;;;;3.53;3.25;;;7.80;99.90;;;;;;5022086;28;20044;-80
2021/12/24 03:16:13;;;;;;;4.32;3.92;;;7.80;99.90;;;;;;5039542;28;20107;-81
2021/12/24 03:18:41;;;;;;;3.72;3.35;;;7.80;99.90;;;;;;5039912;28;20351;-81
2021/12/24 03:21:15;;;;;;;5.05;3.90;;;7.80;99.90;;;;;;5022225;28;20052;-81
2021/12/24 03:24:33;;;;;;;4.35;3.47;;;7.80;99.90;;;;;;5039417;28;20045;-83
2021/12/24 03:26:32;;;;;;;4.32;3.42;;;7.80;99.90;;;;;;5021914;28;20091;-81
2021/12/24 03:28:58;;;;;;;5.43;3.97;;;7.90;99.90;;;;;;5040356;28;20048;-81
2021/12/24 03:31:23;;;;;;;4.43;3.80;;;7.90;99.90;;;;;;5021666;28;20051;-82
2021/12/24 03:33:53;;;;;;;4.50;3.97;;;7.90;99.90;;;;;;5021621;28;20043;-80
2021/12/24 03:36:23;;;;;;;5.30;4.00;;;7.90;99.90;;;;;;5038374;28;20055;-81
2021/12/24 03:38:49;;;;;;;7.38;4.88;;;7.90;99.90;;;;;;5021340;28;20060;-81
2021/12/24 03:41:15;;;;;;;7.35;5.70;;;8.00;99.90;;;;;;5022462;28;20053;-80
2021/12/24 03:43:41;;;;;;;9.65;7.43;;;8.00;99.90;;;;;;5021592;28;20488;-81
2021/12/24 03:46:11;;;;;;;10.35;7.15;;;8.00;99.90;;;;;;5016684;28;20049;-82
2021/12/24 03:56:31;;;;;;;16.48;9.77;;;8.20;99.90;;;;;;5022692;28;20190;-83
2021/12/24 03:58:56;;;;;;;15.73;11.00;;;8.30;99.90;;;;;;5022246;28;20106;-84
2021/12/24 04:01:22;;;;;;;15.55;10.23;;;8.30;99.90;;;;;;5022556;28;20049;-83
2021/12/24 04:03:48;;;;;;;19.30;11.82;;;8.40;99.90;;;;;;5041196;28;20071;-83
2021/12/24 04:06:13;;;;;;;16.67;11.68;;;8.40;99.90;;;;;;5021356;28;20047;-84
2021/12/24 04:08:39;;;;;;;24.63;12.88;;;8.40;99.90;;;;;;5041385;28;20041;-83
2021/12/24 04:11:05;;;;;;;17.77;11.27;;;8.50;99.90;;;;;;5042556;28;20459;-83
2021/12/24 04:13:32;;;;;;;20.48;12.18;;;8.50;99.90;;;;;;5039982;28;20234;-82
2021/12/24 04:15:58;;;;;;;19.38;11.50;;;8.50;99.90;;;;;;5040969;28;20056;-82
2021/12/24 04:26:34;;;;;;;17.05;10.35;;;8.60;99.90;;;;;;5039219;28;20165;-81
2021/12/24 04:29:00;;;;;;;15.32;10.07;;;8.70;99.90;;;;;;5022043;28;20068;-81
2021/12/24 04:31:36;;;;;;;22.40;11.60;;;8.70;99.90;;;;;;5022027;28;20067;-81
2021/12/24 04:34:03;;;;;;;14.90;10.60;;;8.70;99.90;;;;;;5039365;28;20041;-80
2021/12/24 05:03:04;;;;;;;20.90;13.02;;;8.90;99.90;;;;;;5020305;28;20775;-81
2021/12/24 05:05:50;;;;;;;18.75;11.35;;;8.90;99.90;;;;;;5020897;28;20056;-82
2021/12/24 05:08:20;;;;;;;19.33;12.35;;;8.90;99.90;;;;;;5019975;28;20057;-82
2021/12/24 05:10:46;;;;;;;18.80;10.57;;;9.00;99.90;;;;;;5020037;28;20057;-82
2021/12/24 05:13:15;;;;;;;21.75;11.13;;;8.90;99.90;;;;;;5038080;28;20946;-81
2021/12/24 05:15:43;;;;;;;16.10;10.75;;;9.00;99.90;;;;;;5019268;28;20477;-82
2021/12/24 05:19:04;;;;;;;18.83;10.48;;;9.00;99.90;;;;;;5020359;28;20109;-82
2021/12/24 05:23:43;;;;;;;19.08;8.95;;;9.00;99.90;;;;;;5037588;28;20812;-82
2021/12/24 05:26:10;;;;;;;14.90;8.57;;;9.00;99.90;;;;;;5020805;28;20049;-82
2021/12/24 05:28:37;;;;;;;18.77;11.35;;;9.00;99.90;;;;;;5020887;28;20045;-82
2021/12/24 05:31:04;;;;;;;19.08;10.35;;;9.00;99.90;;;;;;5038327;28;20404;-82
2021/12/24 05:33:30;;;;;;;19.90;10.27;;;9.00;99.90;;;;;;5038658;28;20052;-82
2021/12/24 05:35:55;;;;;;;19.00;12.27;;;9.00;99.90;;;;;;5038277;28;20464;-81
2021/12/24 05:38:21;;;;;;;20.80;12.85;;;9.00;99.90;;;;;;5039338;28;20045;-82
2021/12/24 05:40:47;;;;;;;21.27;14.68;;;9.00;99.90;;;;;;5022541;28;20052;-81
2021/12/24 05:43:12;;;;;;;17.05;11.98;;;9.00;99.90;;;;;;5039405;28;20053;-80
2021/12/24 05:45:38;;;;;;;20.70;11.70;;;9.90;99.90;;;;;;5021090;28;20056;-81
2021/12/24 05:48:04;;;;;;;22.88;13.90;;;9.10;99.90;;;;;;5021513;28;20044;-81
2021/12/24 05:50:30;;;;;;;25.70;13.18;;;9.10;99.90;;;;;;5020356;28;20824;-80
2021/12/24 05:52:56;;;;;;;21.48;12.35;;;9.10;99.90;;;;;;5039053;28;20389;-80
2021/12/24 05:55:22;;;;;;;19.98;11.88;;;9.10;99.90;;;;;;5020810;28;20053;-81
2021/12/24 05:57:48;;;;;;;26.77;13.02;;;9.00;99.90;;;;;;5020288;28;20098;-81
2021/12/24 06:00:15;;;;;;;18.08;12.57;;;9.10;99.90;;;;;;5038446;28;20048;-81
2021/12/24 06:02:40;;;;;;;20.60;12.50;;;9.10;99.90;;;;;;5020546;28;20460;-80
2021/12/24 06:05:06;;;;;;;19.17;11.02;;;9.10;99.90;;;;;;5038254;28;20079;-80
2021/12/24 06:07:32;;;;;;;21.83;12.48;;;9.10;99.90;;;;;;5038525;28;20062;-80
2021/12/24 06:09:57;;;;;;;19.02;11.73;;;9.10;99.90;;;;;;5020445;28;20479;-80
2021/12/24 06:12:23;;;;;;;19.77;11.48;;;9.10;99.90;;;;;;5038543;28;20075;-80
2021/12/24 06:14:53;;;;;;;17.50;11.23;;;9.10;99.90;;;;;;5021335;28;20084;-81
2021/12/24 06:17:22;;;;;;;23.92;10.93;;;9.10;99.90;;;;;;5038905;28;20055;-80
2021/12/24 06:19:47;;;;;;;18.58;9.55;;;9.60;99.90;;;;;;5038045;28;20045;-80
2021/12/24 06:22:13;;;;;;;17.73;10.05;;;9.10;99.90;;;;;;5021451;28;20747;-81
2021/12/24 06:24:38;;;;;;;16.05;9.43;;;9.10;99.90;;;;;;5020717;28;20057;-80
2021/12/24 06:27:04;;;;;;;20.80;10.43;;;9.10;99.90;;;;;;5038964;28;20041;-80
2021/12/24 06:29:31;;;;;;;16.15;10.23;;;9.10;99.90;;;;;;5014809;28;20052;-81
2021/12/24 06:31:57;;;;;;;17.23;9.23;;;9.10;99.90;;;;;;5038083;28;20110;-80
2021/12/24 06:34:23;;;;;;;17.35;10.65;;;9.10;99.90;;;;;;5037645;28;20057;-80
2021/12/24 06:36:51;;;;;;;17.05;9.27;;;9.10;99.90;;;;;;5021688;28;20052;-80
2021/12/24 06:39:16;;;;;;;20.30;9.88;;;9.10;99.90;;;;;;5022695;28;20057;-80
2021/12/24 06:41:43;;;;;;;16.67;9.27;;;9.10;99.90;;;;;;5041169;28;20060;-80
2021/12/24 06:44:11;;;;;;;31.98;11.32;;;9.10;99.90;;;;;;5041384;28;20045;-80
2021/12/24 06:46:38;;;;;;;16.67;8.68;;;9.10;99.90;;;;;;5023176;28;20091;-79
2021/12/24 06:49:04;;;;;;;15.65;7.68;;;9.10;99.90;;;;;;5040624;28;20669;-80
2021/12/24 06:51:29;;;;;;;13.90;7.35;;;9.10;99.90;;;;;;5034169;28;20045;-78
2021/12/24 06:53:55;;;;;;;19.08;8.55;;;9.10;99.90;;;;;;5038382;28;20824;-77
2021/12/24 06:56:21;;;;;;;16.40;8.10;;;9.10;99.90;;;;;;5022674;28;20045;-78
2021/12/24 06:58:47;;;;;;;13.18;8.57;;;9.10;99.90;;;;;;5040163;28;20476;-79
2021/12/24 07:01:13;;;;;;;8.80;6.82;;;9.00;99.90;;;;;;5021270;28;20057;-78
2021/12/24 07:03:39;;;;;;;15.13;8.35;;;9.00;99.90;;;;;;5020319;28;20390;-79
2021/12/24 07:06:05;;;;;;;11.65;7.72;;;9.00;99.90;;;;;;5037294;28;20056;-79
2021/12/24 07:08:32;;;;;;;13.68;6.40;;;9.00;99.90;;;;;;5017940;28;20049;-79
2021/12/24 07:10:57;;;;;;;12.82;7.50;;;9.00;99.90;;;;;;5018239;28;20111;-79
2021/12/24 07:13:23;;;;;;;15.13;8.02;;;9.00;99.90;;;;;;5037202;28;20049;-80
2021/12/24 07:15:49;;;;;;;14.73;9.52;;;9.00;99.90;;;;;;5018416;28;20151;-80
2021/12/24 07:18:14;;;;;;;20.60;8.00;;;9.00;99.90;;;;;;5036436;28;20053;-79
2021/12/24 07:20:40;;;;;;;16.58;8.60;;;9.00;99.90;;;;;;5037016;28;20053;-79
2021/12/24 07:23:06;;;;;;;9.45;6.38;;;9.00;99.90;;;;;;5035041;28;20057;-78
2021/12/24 07:25:32;;;;;;;9.55;6.57;;;9.00;99.90;;;;;;5019417;28;20063;-78
2021/12/24 07:27:57;;;;;;;12.90;7.53;;;9.00;99.90;;;;;;5019056;28;20049;-78
2021/12/24 07:30:23;;;;;;;11.75;7.57;;;9.00;99.90;;;;;;5017440;28;20480;-81
2021/12/24 07:32:49;;;;;;;21.83;9.27;;;8.90;99.90;;;;;;5018294;28;20041;-80
2021/12/24 07:35:16;;;;;;;9.55;6.88;;;8.90;99.90;;;;;;5017474;28;20051;-79
2021/12/24 07:37:42;;;;;;;10.75;6.63;;;8.90;99.90;;;;;;5016348;28;20048;-83
2021/12/24 07:40:09;;;;;;;12.32;6.57;;;8.90;99.90;;;;;;5018889;28;20126;-82
2021/12/24 07:42:35;;;;;;;11.68;6.43;;;8.90;99.90;;;;;;5018094;28;20052;-80
2021/12/24 07:45:01;;;;;;;16.35;6.20;;;9.60;99.90;;;;;;5017644;28;20507;-80
2021/12/24 07:47:28;;;;;;;12.77;7.35;;;8.90;99.90;;;;;;5017315;28;20048;-81
2021/12/24 07:50:16;;;;;;;11.10;6.50;;;8.90;99.90;;;;;;5016558;28;20041;-81
2021/12/24 07:52:42;;;;;;;8.90;5.13;;;8.80;99.90;;;;;;5016474;28;20130;-81
2021/12/24 07:55:10;;;;;;;12.93;6.72;;;8.80;99.90;;;;;;5017568;28;20185;-82
2021/12/24 07:57:36;;;;;;;10.00;5.38;;;8.90;99.90;;;;;;5034397;28;20524;-80
2021/12/24 08:00:05;;;;;;;10.60;6.75;;;8.80;99.90;;;;;;5017365;28;20091;-81
2021/12/24 08:02:31;;;;;;;9.50;6.20;;;8.80;99.90;;;;;;5016786;28;20060;-83
2021/12/24 08:04:57;;;;;;;11.70;6.00;;;8.80;99.90;;;;;;5036866;28;20045;-82
2021/12/24 08:07:23;;;;;;;11.73;7.00;;;8.80;99.90;;;;;;5018421;28;20519;-84
2021/12/24 08:09:51;;;;;;;11.98;6.82;;;8.80;99.90;;;;;;5017494;28;20128;-84
2021/12/24 08:12:17;;;;;;;13.35;6.90;;;8.80;99.90;;;;;;5017424;28;20056;-84
2021/12/24 08:14:44;;;;;;;13.63;8.45;;;8.80;99.90;;;;;;5035534;28;20053;-83
2021/12/24 08:17:10;;;;;;;12.75;6.15;;;8.80;99.90;;;;;;5035707;28;20045;-83
2021/12/24 08:19:36;;;;;;;8.75;4.60;;;8.80;99.90;;;;;;5018116;28;20789;-85
2021/12/24 08:22:03;;;;;;;9.75;5.32;;;8.80;99.90;;;;;;5029166;28;20856;-84
2021/12/24 08:24:30;;;;;;;7.63;4.45;;;8.80;99.90;;;;;;5008192;28;20139;-85
2021/12/24 08:26:56;;;;;;;11.40;5.47;;;8.80;99.90;;;;;;5010790;28;20053;-82
2021/12/24 08:29:22;;;;;;;9.65;4.97;;;8.80;99.90;;;;;;5034345;28;20072;-82
2021/12/24 08:31:50;;;;;;;8.20;4.18;;;8.80;99.90;;;;;;5018531;28;20405;-83
2021/12/24 08:34:17;;;;;;;8.05;4.30;;;8.80;99.90;;;;;;5035896;28;20822;-82
2021/12/24 08:36:43;;;;;;;12.55;5.80;;;8.80;99.90;;;;;;5034486;28;20049;-80
2021/12/24 08:39:09;;;;;;;9.45;4.93;;;8.80;99.90;;;;;;5034020;28;20048;-82
2021/12/24 08:41:34;;;;;;;12.05;5.18;;;8.80;99.90;;;;;;5016535;28;20071;-83
2021/12/24 08:44:01;;;;;;;8.38;4.07;;;8.80;99.90;;;;;;5017758;28;20155;-82
2021/12/24 08:46:27;;;;;;;9.77;4.18;;;8.80;99.90;;;;;;5017691;28;20114;-83
2021/12/24 08:48:52;;;;;;;9.73;4.57;;;8.80;99.90;;;;;;5017120;28;20041;-85
2021/12/24 08:51:18;;;;;;;11.20;4.50;;;8.80;99.90;;;;;;5017102;28;20041;-85
2021/12/24 08:53:43;;;;;;;8.38;4.10;;;8.80;99.90;;;;;;5034862;28;20143;-82
2021/12/24 08:56:09;;;;;;;8.90;5.22;;;8.80;99.90;;;;;;5014900;28;20519;-85
2021/12/24 08:58:36;;;;;;;8.32;4.80;;;8.80;99.90;;;;;;5035114;28;20048;-84
2021/12/24 09:01:01;;;;;;;6.72;4.28;;;8.80;99.90;;;;;;5016205;28;20829;-83
2021/12/24 09:03:27;;;;;;;8.30;4.95;;;8.80;99.90;;;;;;5016920;28;20045;-84
2021/12/24 09:05:53;;;;;;;7.72;4.53;;;8.80;99.90;;;;;;5015698;28;20069;-82
2021/12/24 09:08:18;;;;;;;12.80;6.78;;;8.80;99.90;;;;;;5034075;28;20040;-84
2021/12/24 09:10:44;;;;;;;6.95;4.07;;;8.80;99.90;;;;;;5015671;28;20132;-81
2021/12/24 09:13:09;;;;;;;5.78;3.42;;;8.80;99.90;;;;;;5019770;28;20044;-83
2021/12/24 09:15:37;;;;;;;6.13;4.15;;;8.80;99.90;;;;;;5016351;28;20053;-82
2021/12/24 09:18:04;;;;;;;6.55;3.97;;;8.50;99.90;;;;;;5039374;28;20055;-84
2021/12/24 09:20:36;;;;;;;10.48;4.80;;;8.90;99.90;;;;;;5023323;28;20056;-81
2021/12/24 09:23:02;;;;;;;7.37;3.67;;;8.90;99.90;;;;;;5022197;28;20106;-80
2021/12/24 09:25:29;;;;;;;6.18;3.35;;;8.90;99.90;;;;;;5020277;28;20101;-80
2021/12/24 09:27:56;;;;;;;4.15;3.25;;;8.80;99.90;;;;;;5022856;28;20080;-81
2021/12/24 09:30:22;;;;;;;3.58;2.97;;;8.90;99.90;;;;;;5021654;28;20049;-81
2021/12/24 09:32:47;;;;;;;3.75;3.15;;;8.90;99.90;;;;;;5021644;28;20794;-82
2021/12/24 09:35:13;;;;;;;10.88;4.15;;;8.90;99.90;;;;;;5036417;28;20572;-82
2021/12/24 09:37:40;;;;;;;5.72;3.88;;;8.80;99.90;;;;;;5038750;28;20122;-83
2021/12/24 09:40:08;;;;;;;6.18;3.85;;;9.30;99.90;;;;;;5022521;28;20060;-82
2021/12/24 09:42:34;;;;;;;4.28;3.22;;;8.90;99.90;;;;;;5022338;28;20080;-80
2021/12/24 09:45:01;;;;;;;7.28;4.30;;;8.90;99.90;;;;;;5022372;28;20067;-81
2021/12/24 09:47:26;;;;;;;5.30;4.05;;;8.90;99.90;;;;;;5023414;28;20044;-81
2021/12/24 09:49:53;;;;;;;8.52;5.22;;;8.90;99.90;;;;;;5022896;28;20059;-81
2021/12/24 09:52:19;;;;;;;8.00;4.20;;;8.90;99.90;;;;;;5041543;28;20099;-85
2021/12/24 09:54:47;;;;;;;6.20;3.83;;;8.90;99.90;;;;;;4675729;28;9999655;-83
2021/12/24 09:57:14;;;;;;;5.13;3.42;;;8.90;99.90;;;;;;5020055;28;20121;-74
2021/12/24 09:59:40;;;;;;;6.68;4.30;;;8.90;99.90;;;;;;5019718;28;20053;-80
2021/12/24 10:02:14;;;;;;;6.95;3.80;;;8.90;99.90;;;;;;5017766;28;20045;-84
2021/12/24 10:04:40;;;;;;;9.32;3.55;;;8.90;99.90;;;;;;5016432;28;20049;-78
2021/12/24 10:07:09;;;;;;;4.60;2.90;;;8.90;99.90;;;;;;5016154;28;20069;-78
2021/12/24 10:09:37;;;;;;;1.60;1.50;;;8.80;99.90;;;;;;5016664;28;20064;-80
2021/12/24 10:12:07;;;;;;;3.75;2.08;;;8.10;99.90;;;;;;5018301;28;20805;-83
2021/12/24 10:14:36;;;;;;;1.98;1.80;;;8.00;99.90;;;;;;5012174;28;20991;-85
2021/12/24 10:17:03;;;;;;;2.00;1.75;;;7.80;99.90;;;;;;5030455;28;20794;-84
2021/12/24 10:19:29;;;;;;;2.42;2.13;;;7.60;99.90;;;;;;5012923;28;20475;-85
2021/12/24 10:22:04;;;;;;;2.13;1.92;;;7.40;99.90;;;;;;5018792;28;20094;-84
2021/12/24 10:24:30;;;;;;;2.38;2.17;;;7.30;99.90;;;;;;5015745;28;20049;-82
2021/12/24 10:26:58;;;;;;;2.58;2.38;;;7.10;99.90;;;;;;5036817;28;20785;-81
2021/12/24 10:29:37;;;;;;;2.92;2.30;;;7.10;99.90;;;;;;5019777;28;20053;-82
2021/12/24 10:32:14;;;;;;;3.35;2.45;;;7.00;99.90;;;;;;5036872;28;20041;-81
2021/12/24 10:34:41;;;;;;;3.10;2.35;;;7.00;99.90;;;;;;5019464;28;20049;-81
2021/12/24 10:37:22;;;;;;;3.42;2.70;;;7.00;99.90;;;;;;5019497;28;20531;-81
2021/12/24 10:39:58;;;;;;;3.60;2.75;;;7.00;99.90;;;;;;5018442;28;20407;-84
2021/12/24 10:42:37;;;;;;;2.80;2.58;;;6.90;99.90;;;;;;5019275;28;20052;-81
2021/12/24 10:45:07;;;;;;;3.50;2.75;;;6.90;99.90;;;;;;5035465;28;20049;-81
2021/12/24 10:47:37;;;;;;;3.17;2.42;;;6.80;99.90;;;;;;5017776;28;20856;-81
2021/12/24 10:53:17;;;;;;;3.72;2.42;;;6.80;99.90;;;;;;5014625;28;20555;-81
2021/12/24 10:55:53;;;;;;;4.10;2.42;;;6.80;99.90;;;;;;5008138;28;20072;-79
2021/12/24 10:58:21;;;;;;;3.13;2.33;;;6.80;99.90;;;;;;5036310;28;20509;-82
2021/12/24 11:00:56;;;;;;;2.63;2.42;;;6.70;99.90;;;;;;5014842;28;20782;-81
2021/12/24 11:03:32;;;;;;;2.67;2.10;;;7.50;99.90;;;;;;5018851;28;20052;-81
2021/12/24 11:06:07;;;;;;;2.97;2.08;;;6.60;99.90;;;;;;5017506;28;20049;-80
2021/12/24 11:08:33;;;;;;;2.58;1.90;;;6.00;99.90;;;;;;5016121;28;20044;-80
2021/12/24 11:11:01;;;;;;;2.65;2.28;;;6.70;99.90;;;;;;5018214;28;20458;-79
2021/12/24 11:13:44;;;;;;;2.55;2.00;;;6.60;99.90;;;;;;5018319;28;20056;-80
2021/12/24 11:16:15;;;;;;;1.92;1.75;;;6.60;99.90;;;;;;5030119;28;20053;-82
2021/12/24 11:18:46;;;;;;;2.50;1.50;;;6.60;99.90;;;;;;5031637;28;20096;-82
2021/12/24 11:21:23;;;;;;;2.00;1.80;;;6.50;99.90;;;;;;5036709;28;20056;-82
2021/12/24 11:23:49;;;;;;;2.65;2.20;;;6.50;99.90;;;;;;5018970;28;20061;-81
2021/12/24 11:26:24;;;;;;;3.53;2.58;;;6.60;99.90;;;;;;5018507;28;20246;-82
2021/12/24 11:28:50;;;;;;;4.40;3.20;;;6.50;99.90;;;;;;5018984;28;20057;-81
2021/12/24 11:31:21;;;;;;;3.13;2.35;;;6.50;99.90;;;;;;5034389;28;20051;-81
2021/12/24 11:33:48;;;;;;;2.90;2.40;;;6.50;99.90;;;;;;5034673;28;20048;-80
2021/12/24 11:36:17;;;;;;;2.47;2.28;;;6.50;99.90;;;;;;5016134;28;20225;-81
2021/12/24 11:38:52;;;;;;;2.42;2.22;;;6.50;99.90;;;;;;5036653;28;20079;-82
2021/12/24 11:41:20;;;;;;;2.97;2.00;;;6.60;99.90;;;;;;5018811;28;20061;-80
2021/12/24 11:43:49;;;;;;;3.97;2.50;;;6.30;99.90;;;;;;5018481;28;20079;-81
2021/12/24 11:46:17;;;;;;;3.83;2.35;;;6.60;99.90;;;;;;5018111;28;20060;-81
2021/12/24 11:48:44;;;;;;;2.60;2.33;;;6.60;99.90;;;;;;5018141;28;20598;-74
2021/12/24 11:51:14;;;;;;;2.17;1.98;;;6.60;99.90;;;;;;5036231;28;20160;-77
2021/12/24 11:53:41;;;;;;;3.38;2.15;;;6.70;99.90;;;;;;5019150;28;20410;-82
2021/12/24 11:56:09;;;;;;;3.60;2.30;;;6.60;99.90;;;;;;5018210;28;20052;-82
2021/12/24 11:58:45;;;;;;;2.83;2.35;;;6.70;99.90;;;;;;5018913;28;20148;-82
2021/12/24 12:01:11;;;;;;;2.22;1.83;;;6.70;99.90;;;;;;5015329;28;20522;-82
2021/12/24 12:03:52;;;;;;;1.92;1.75;;;6.70;99.90;;;;;;5015081;28;20052;-81
2021/12/24 12:06:17;;;;;;;2.75;2.55;;;6.70;99.90;;;;;;5016637;28;20047;-81
2021/12/24 12:08:44;;;;;;;3.78;2.45;;;6.70;99.90;;;;;;5035027;28;20271;-81
2021/12/24 12:11:18;;;;;;;2.35;2.10;;;6.80;99.90;;;;;;5028860;28;20044;-81
2021/12/24 12:14:03;;;;;;;2.88;2.05;;;6.70;99.90;;;;;;5036063;28;20052;-82
2021/12/24 12:16:50;;;;;;;3.42;2.17;;;6.70;99.90;;;;;;5018210;28;20059;-82
2021/12/24 12:19:26;;;;;;;4.13;2.83;;;6.70;99.90;;;;;;5033338;28;20103;-82
2021/12/24 12:22:19;;;;;;;3.08;2.40;;;6.70;99.90;;;;;;5010480;28;20106;-82
2021/12/24 12:25:03;;;;;;;3.33;2.20;;;6.70;99.90;;;;;;5013542;28;20049;-83
2021/12/24 12:27:55;;;;;;;2.25;2.05;;;6.80;99.90;;;;;;5016433;28;20806;-83
2021/12/24 12:30:23;;;;;;;2.30;2.08;;;6.80;99.90;;;;;;5015063;28;20128;-82
2021/12/24 12:32:51;;;;;;;14.30;4.63;;;6.80;99.90;;;;;;5015054;28;20041;-82
2021/12/24 12:35:17;;;;;;;3.65;2.17;;;6.90;99.90;;;;;;5017089;28;20060;-83
2021/12/24 12:37:52;;;;;;;3.90;2.30;;;6.90;99.90;;;;;;5034998;28;20048;-82
2021/12/24 12:40:17;;;;;;;2.92;2.30;;;6.90;99.90;;;;;;5016402;28;20060;-83
2021/12/24 12:42:50;;;;;;;3.85;3.08;;;6.90;99.90;;;;;;5017969;28;20047;-82
2021/12/24 12:45:21;;;;;;;3.58;3.05;;;6.90;99.90;;;;;;5017748;28;20846;-82
2021/12/24 12:47:55;;;;;;;3.55;2.78;;;7.00;99.90;;;;;;5020081;28;20049;-82
2021/12/24 12:50:22;;;;;;;3.88;3.05;;;7.00;99.90;;;;;;5022245;28;20076;-83
2021/12/24 12:52:48;;;;;;;3.97;2.83;;;7.00;99.90;;;;;;5021052;28;20048;-82
2021/12/24 12:55:34;;;;;;;3.83;2.70;;;7.10;99.90;;;;;;5034410;28;20190;-83
2021/12/24 12:58:24;;;;;;;3.72;2.60;;;7.20;99.90;;;;;;5033548;28;20049;-82
2021/12/24 13:01:03;;;;;;;4.13;3.20;;;7.20;99.90;;;;;;5020744;28;20173;-82
2021/12/24 13:03:29;;;;;;;2.92;2.72;;;7.20;99.90;;;;;;5032622;28;20076;-83
2021/12/24 13:06:08;;;;;;;2.78;2.50;;;7.30;99.90;;;;;;5032887;28;20054;-83
2021/12/24 13:08:36;;;;;;;3.40;2.92;;;7.30;99.90;;;;;;5018296;28;20052;-81
2021/12/24 13:11:17;;;;;;;4.03;2.90;;;7.30;99.90;;;;;;5040219;28;20064;-82
2021/12/24 13:14:01;;;;;;;4.57;2.60;;;7.40;99.90;;;;;;5021826;28;20045;-82
2021/12/24 13:16:35;;;;;;;3.70;2.85;;;7.40;99.90;;;;;;5039358;28;20126;-81
2021/12/24 13:24:16;;;;;;;4.65;2.83;;;7.50;99.90;;;;;;5020169;28;20049;-81
2021/12/24 13:26:43;;;;;;;4.72;3.30;;;7.50;99.90;;;;;;5021139;28;20850;-81
2021/12/24 13:29:13;;;;;;;2.55;2.35;;;7.50;99.90;;;;;;5020259;28;20084;-80
2021/12/24 13:31:40;;;;;;;3.30;2.42;;;7.60;99.90;;;;;;5020462;28;20049;-81
2021/12/24 13:34:14;;;;;;;3.10;2.53;;;7.60;99.90;;;;;;5019446;28;20571;-81
2021/12/24 13:36:40;;;;;;;4.22;2.50;;;7.70;99.90;;;;;;5032549;28;20048;-81
2021/12/24 13:39:14;;;;;;;2.60;2.40;;;7.70;99.90;;;;;;5020643;28;20051;-81
2021/12/24 13:41:41;;;;;;;3.35;3.05;;;7.70;99.90;;;;;;5038382;28;20159;-81
2021/12/24 13:44:19;;;;;;;2.90;2.63;;;7.70;99.90;;;;;;5021731;28;20052;-80
2021/12/24 13:46:59;;;;;;;2.67;2.47;;;7.80;99.90;;;;;;5040459;28;20116;-80
2021/12/24 13:49:56;;;;;;;3.65;2.30;;;7.70;99.90;;;;;;5023264;28;20049;-80
2021/12/24 13:55:45;;;;;;;3.45;2.30;;;7.80;99.90;;;;;;4953693;28;20172;-80
2021/12/24 13:58:19;;;;;;;5.32;2.45;;;7.80;99.90;;;;;;5027154;28;20393;-80
2021/12/24 14:01:03;;;;;;;3.10;2.80;;;7.70;99.90;;;;;;5040350;28;20053;-80
2021/12/24 14:03:32;;;;;;;2.50;2.17;;;7.70;99.90;;;;;;5040423;28;20049;-80
2021/12/24 14:06:04;;;;;;;2.72;2.53;;;7.60;99.90;;;;;;5023310;28;20519;-80
2021/12/24 14:08:36;;;;;;;2.63;2.42;;;7.60;99.90;;;;;;5022312;28;20036;-80
2021/12/24 14:11:22;;;;;;;4.15;2.28;;;7.70;99.90;;;;;;5024872;28;20110;-80
2021/12/24 14:13:56;;;;;;;2.70;2.30;;;7.60;99.90;;;;;;5024895;28;20048;-80
2021/12/24 14:16:39;;;;;;;2.58;1.95;;;7.50;99.90;;;;;;5024223;28;20057;-80
2021/12/24 14:19:18;;;;;;;;;;;7.60;99.90;;;;;;5024402;28;20068;-80
2021/12/24 14:21:46;;;;;;;6.13;2.28;;;7.40;99.90;;;;;;5023835;28;19960;-80
2021/12/24 14:24:19;;;;;;;3.20;2.45;;;7.50;99.90;;;;;;5021980;28;20060;-79
2021/12/24 14:26:53;;;;;;;2.67;2.20;;;7.40;99.90;;;;;;5013572;28;20092;-73
2021/12/24 14:29:35;;;;;;;3.90;2.38;;;7.40;99.90;;;;;;5019007;28;20557;-69
2021/12/24 14:32:03;;;;;;;1.90;1.80;;;7.50;99.90;;;;;;5020694;28;20049;-79
2021/12/24 14:34:28;;;;;;;2.72;2.53;;;7.50;99.90;;;;;;5039823;28;20049;-82
2021/12/24 14:36:58;;;;;;;3.55;2.83;;;7.50;99.90;;;;;;5040328;28;20049;-81
2021/12/24 14:39:24;;;;;;;2.50;2.22;;;7.40;99.90;;;;;;5039927;28;20044;-81
2021/12/24 14:42:08;;;;;;;2.65;2.00;;;7.40;99.90;;;;;;5021556;28;20068;-81